sensor_id;sensor_type;location;lat;lon;timestamp;pressure;altitude;pressure_sealevel;temperature;humidity
60099;BME280;62818;49.394;8.686;2022-12-18T00:00:00;101714.94;;;-7.39;100.00
60099;BME280;62818;49.394;8.686;2022-12-18T00:01:04;101709.00;;;-7.42;100.00
60099;BME280;62818;49.394;8.686;2022-12-18T00:02:07;101712.19;;;-7.30;100.00
60099;BME280;62818;49.394;8.686;2022-12-18T00:03:08;101711.19;;;-7.23;100.00
60099;BME280;62818;49.394;8.686;2022-12-18T00:04:25;101717.53;;;-6.99;100.00
60099;BME280;62818;49.394;8.686;2022-12-18T00:05:27;101714.72;;;-7.28;100.00
60099;BME280;62818;49.394;8.686;2022-12-18T00:06:28;101719.09;;;-7.33;100.00
60099;BME280;62818;49.394;8.686;2022-12-18T00:07:29;101717.16;;;-7.22;100.00
60099;BME280;62818;49.394;8.686;2022-12-18T00:08:30;101710.28;;;-7.20;100.00
60099;BME280;62818;49.394;8.686;2022-12-18T00:09:33;101702.81;;;-7.34;100.00
60099;BME280;62818;49.394;8.686;2022-12-18T00:10:34;101709.81;;;-7.40;100.00
60099;BME280;62818;49.394;8.686;2022-12-18T00:11:34;101706.81;;;-7.19;100.00
60099;BME280;62818;49.394;8.686;2022-12-18T00:12:37;101704.59;;;-6.96;100.00
60099;BME280;62818;49.394;8.686;2022-12-18T00:13:40;101706.47;;;-7.04;100.00
60099;BME280;62818;49.394;8.686;2022-12-18T00:14:44;101714.97;;;-7.40;100.00
60099;BME280;62818;49.394;8.686;2022-12-18T00:15:44;101706.13;;;-7.27;100.00
60099;BME280;62818;49.394;8.686;2022-12-18T00:16:47;101710.38;;;-7.26;100.00
60099;BME280;62818;49.394;8.686;2022-12-18T00:17:50;101712.94;;;-7.26;100.00
60099;BME280;62818;49.394;8.686;2022-12-18T00:18:53;101716.19;;;-7.17;100.00
60099;BME280;62818;49.394;8.686;2022-12-18T00:19:57;101716.88;;;-7.07;100.00
60099;BME280;62818;49.394;8.686;2022-12-18T00:21:06;101716.69;;;-7.00;100.00
60099;BME280;62818;49.394;8.686;2022-12-18T00:22:08;101719.44;;;-7.09;100.00
60099;BME280;62818;49.394;8.686;2022-12-18T00:23:08;101723.66;;;-7.03;100.00
60099;BME280;62818;49.394;8.686;2022-12-18T00:24:12;101720.94;;;-6.97;100.00
60099;BME280;62818;49.394;8.686;2022-12-18T00:25:12;101712.94;;;-7.25;100.00
60099;BME280;62818;49.394;8.686;2022-12-18T00:26:22;101719.09;;;-7.33;100.00
60099;BME280;62818;49.394;8.686;2022-12-18T00:27:25;101717.91;;;-7.17;100.00
60099;BME280;62818;49.394;8.686;2022-12-18T00:28:28;101718.72;;;-7.15;100.00
60099;BME280;62818;49.394;8.686;2022-12-18T00:29:28;101717.63;;;-7.04;100.00
60099;BME280;62818;49.394;8.686;2022-12-18T00:30:29;101724.31;;;-6.95;100.00
60099;BME280;62818;49.394;8.686;2022-12-18T00:31:30;101722.06;;;-7.10;100.00
60099;BME280;62818;49.394;8.686;2022-12-18T00:32:32;101725.03;;;-6.50;100.00
60099;BME280;62818;49.394;8.686;2022-12-18T00:33:33;101716.69;;;-6.25;100.00
60099;BME280;62818;49.394;8.686;2022-12-18T00:34:35;101719.78;;;-6.84;100.00
60099;BME280;62818;49.394;8.686;2022-12-18T00:35:38;101719.94;;;-6.90;100.00
60099;BME280;62818;49.394;8.686;2022-12-18T00:36:39;101714.13;;;-6.63;100.00
60099;BME280;62818;49.394;8.686;2022-12-18T00:37:44;101713.53;;;-6.74;100.00
60099;BME280;62818;49.394;8.686;2022-12-18T00:38:45;101716.34;;;-6.83;100.00
60099;BME280;62818;49.394;8.686;2022-12-18T00:39:48;101717.00;;;-6.37;100.00
60099;BME280;62818;49.394;8.686;2022-12-18T00:40:49;101718.53;;;-6.66;100.00
60099;BME280;62818;49.394;8.686;2022-12-18T00:41:50;101723.50;;;-6.97;100.00
60099;BME280;62818;49.394;8.686;2022-12-18T00:43:09;101721.94;;;-7.03;100.00
60099;BME280;62818;49.394;8.686;2022-12-18T00:44:12;101719.94;;;-6.90;100.00
60099;BME280;62818;49.394;8.686;2022-12-18T00:45:14;101713.16;;;-6.94;100.00
60099;BME280;62818;49.394;8.686;2022-12-18T00:46:15;101715.38;;;-6.79;100.00
60099;BME280;62818;49.394;8.686;2022-12-18T00:47:15;101709.38;;;-6.41;100.00
60099;BME280;62818;49.394;8.686;2022-12-18T00:48:18;101714.03;;;-6.57;100.00
60099;BME280;62818;49.394;8.686;2022-12-18T00:49:21;101694.94;;;-5.82;100.00
60099;BME280;62818;49.394;8.686;2022-12-18T00:50:23;101705.66;;;-6.31;100.00
60099;BME280;62818;49.394;8.686;2022-12-18T00:51:24;101707.81;;;-6.48;100.00
60099;BME280;62818;49.394;8.686;2022-12-18T00:52:25;101715.59;;;-6.88;100.00
60099;BME280;62818;49.394;8.686;2022-12-18T00:53:28;101713.78;;;-6.85;100.00
60099;BME280;62818;49.394;8.686;2022-12-18T00:54:29;101715.78;;;-6.97;100.00
60099;BME280;62818;49.394;8.686;2022-12-18T00:55:29;101725.22;;;-6.96;100.00
60099;BME280;62818;49.394;8.686;2022-12-18T00:56:32;101725.47;;;-7.08;100.00
60099;BME280;62818;49.394;8.686;2022-12-18T00:57:38;101726.84;;;-6.94;100.00
60099;BME280;62818;49.394;8.686;2022-12-18T00:58:41;101720.63;;;-6.84;100.00
60099;BME280;62818;49.394;8.686;2022-12-18T00:59:41;101730.16;;;-6.87;100.00
60099;BME280;62818;49.394;8.686;2022-12-18T01:00:44;101732.63;;;-6.83;100.00
60099;BME280;62818;49.394;8.686;2022-12-18T01:01:49;101731.13;;;-6.53;100.00
60099;BME280;62818;49.394;8.686;2022-12-18T01:02:50;101738.28;;;-6.65;100.00
60099;BME280;62818;49.394;8.686;2022-12-18T01:03:51;101738.41;;;-6.71;100.00
60099;BME280;62818;49.394;8.686;2022-12-18T01:04:51;101742.63;;;-6.67;100.00
60099;BME280;62818;49.394;8.686;2022-12-18T01:05:54;101742.53;;;-6.64;100.00
60099;BME280;62818;49.394;8.686;2022-12-18T01:06:55;101739.22;;;-6.69;100.00
60099;BME280;62818;49.394;8.686;2022-12-18T01:07:56;101733.03;;;-6.61;100.00
60099;BME280;62818;49.394;8.686;2022-12-18T01:08:57;101730.22;;;-6.90;100.00
60099;BME280;62818;49.394;8.686;2022-12-18T01:09:57;101729.97;;;-6.78;100.00
60099;BME280;62818;49.394;8.686;2022-12-18T01:10:58;101724.41;;;-7.00;100.00
60099;BME280;62818;49.394;8.686;2022-12-18T01:12:01;101728.19;;;-6.76;100.00
60099;BME280;62818;49.394;8.686;2022-12-18T01:13:02;101719.78;;;-6.84;100.00
60099;BME280;62818;49.394;8.686;2022-12-18T01:14:05;101726.03;;;-6.96;100.00
60099;BME280;62818;49.394;8.686;2022-12-18T01:15:09;101725.50;;;-6.70;100.00
60099;BME280;62818;49.394;8.686;2022-12-18T01:16:13;101713.44;;;-6.33;100.00
60099;BME280;62818;49.394;8.686;2022-12-18T01:17:14;101715.19;;;-6.70;100.00
60099;BME280;62818;49.394;8.686;2022-12-18T01:18:15;101712.81;;;-6.79;100.00
60099;BME280;62818;49.394;8.686;2022-12-18T01:19:18;101714.13;;;-6.63;100.00
60099;BME280;62818;49.394;8.686;2022-12-18T01:20:18;101705.69;;;-5.97;100.00
60099;BME280;62818;49.394;8.686;2022-12-18T01:21:19;101708.94;;;-6.60;100.00
60099;BME280;62818;49.394;8.686;2022-12-18T01:22:21;101713.28;;;-6.62;100.00
60099;BME280;62818;49.394;8.686;2022-12-18T01:23:21;101700.50;;;-6.31;100.00
60099;BME280;62818;49.394;8.686;2022-12-18T01:24:22;101708.81;;;-6.55;100.00
60099;BME280;62818;49.394;8.686;2022-12-18T01:25:25;101704.25;;;-6.81;100.00
60099;BME280;62818;49.394;8.686;2022-12-18T01:26:25;101703.25;;;-6.39;100.00
60099;BME280;62818;49.394;8.686;2022-12-18T01:27:29;101699.81;;;-6.38;100.00
60099;BME280;62818;49.394;8.686;2022-12-18T01:28:30;101708.84;;;-6.95;100.00
60099;BME280;62818;49.394;8.686;2022-12-18T01:29:33;101708.81;;;-6.92;100.00
60099;BME280;62818;49.394;8.686;2022-12-18T01:30:34;101712.28;;;-6.95;100.00
60099;BME280;62818;49.394;8.686;2022-12-18T01:31:34;101709.75;;;-6.96;100.00
60099;BME280;62818;49.394;8.686;2022-12-18T01:32:37;101711.75;;;-7.10;100.00
60099;BME280;62818;49.394;8.686;2022-12-18T01:33:38;101715.75;;;-6.57;100.00
60099;BME280;62818;49.394;8.686;2022-12-18T01:34:41;101704.91;;;-6.36;100.00
60099;BME280;62818;49.394;8.686;2022-12-18T01:35:43;101707.84;;;-6.15;100.00
60099;BME280;62818;49.394;8.686;2022-12-18T01:36:44;101719.28;;;-6.63;100.00
60099;BME280;62818;49.394;8.686;2022-12-18T01:37:47;101723.69;;;-6.66;100.00
60099;BME280;62818;49.394;8.686;2022-12-18T01:38:54;101714.63;;;-6.84;100.00
60099;BME280;62818;49.394;8.686;2022-12-18T01:39:55;101720.94;;;-6.59;100.00
60099;BME280;62818;49.394;8.686;2022-12-18T01:40:59;101721.03;;;-6.27;100.00
60099;BME280;62818;49.394;8.686;2022-12-18T01:42:10;101725.44;;;-6.32;100.00
60099;BME280;62818;49.394;8.686;2022-12-18T01:43:15;101733.22;;;-6.70;100.00
60099;BME280;62818;49.394;8.686;2022-12-18T01:45:59;101734.47;;;-6.49;100.00
60099;BME280;62818;49.394;8.686;2022-12-18T01:47:00;101737.53;;;-6.70;100.00
60099;BME280;62818;49.394;8.686;2022-12-18T01:48:03;101733.44;;;-6.79;100.00
60099;BME280;62818;49.394;8.686;2022-12-18T01:49:11;101733.34;;;-6.76;100.00
60099;BME280;62818;49.394;8.686;2022-12-18T01:50:20;101746.03;;;-7.05;100.00
60099;BME280;62818;49.394;8.686;2022-12-18T01:51:29;101743.06;;;-6.89;100.00
60099;BME280;62818;49.394;8.686;2022-12-18T01:52:35;101740.88;;;-6.67;100.00
60099;BME280;62818;49.394;8.686;2022-12-18T01:53:39;101732.22;;;-6.28;100.00
60099;BME280;62818;49.394;8.686;2022-12-18T01:54:41;101725.97;;;-6.18;100.00
60099;BME280;62818;49.394;8.686;2022-12-18T01:55:47;101722.56;;;-6.55;100.00
60099;BME280;62818;49.394;8.686;2022-12-18T01:56:52;101705.59;;;-6.65;100.00
60099;BME280;62818;49.394;8.686;2022-12-18T01:57:55;101707.81;;;-6.48;100.00
60099;BME280;62818;49.394;8.686;2022-12-18T01:59:02;101699.66;;;-6.32;100.00
60099;BME280;62818;49.394;8.686;2022-12-18T02:00:12;101704.47;;;-6.53;100.00
60099;BME280;62818;49.394;8.686;2022-12-18T02:01:15;101697.59;;;-6.53;100.00
60099;BME280;62818;49.394;8.686;2022-12-18T02:02:16;101701.38;;;-6.67;100.00
60099;BME280;62818;49.394;8.686;2022-12-18T02:03:17;101707.19;;;-6.96;100.00
60099;BME280;62818;49.394;8.686;2022-12-18T02:04:23;101704.59;;;-6.96;100.00
60099;BME280;62818;49.394;8.686;2022-12-18T02:06:52;101710.34;;;-6.84;100.00
60099;BME280;62818;49.394;8.686;2022-12-18T02:08:10;101708.53;;;-6.80;100.00
60099;BME280;62818;49.394;8.686;2022-12-18T02:09:19;101717.06;;;-6.76;100.00
60099;BME280;62818;49.394;8.686;2022-12-18T02:11:59;101720.75;;;-6.50;100.00
60099;BME280;62818;49.394;8.686;2022-12-18T02:13:40;101722.06;;;-6.70;100.00
60099;BME280;62818;49.394;8.686;2022-12-18T02:14:53;101720.44;;;-6.74;100.00
60099;BME280;62818;49.394;8.686;2022-12-18T02:16:24;101717.81;;;-6.73;100.00
60099;BME280;62818;49.394;8.686;2022-12-18T02:18:32;101729.59;;;-6.63;100.00
60099;BME280;62818;49.394;8.686;2022-12-18T02:20:45;101728.00;;;-7.05;100.00
60099;BME280;62818;49.394;8.686;2022-12-18T02:23:45;101725.09;;;-6.90;100.00
60099;BME280;62818;49.394;8.686;2022-12-18T02:24:57;101722.41;;;-7.27;100.00
60099;BME280;62818;49.394;8.686;2022-12-18T02:26:27;101735.06;;;-6.75;100.00
60099;BME280;62818;49.394;8.686;2022-12-18T02:27:35;101732.59;;;-7.22;100.00
60099;BME280;62818;49.394;8.686;2022-12-18T02:28:49;101735.28;;;-7.27;100.00
60099;BME280;62818;49.394;8.686;2022-12-18T02:29:53;101738.59;;;-7.20;100.00
60099;BME280;62818;49.394;8.686;2022-12-18T02:31:00;101737.84;;;-7.27;100.00
60099;BME280;62818;49.394;8.686;2022-12-18T02:32:11;101743.13;;;-7.31;100.00
60099;BME280;62818;49.394;8.686;2022-12-18T02:33:17;101750.69;;;-7.24;100.00
60099;BME280;62818;49.394;8.686;2022-12-18T02:34:26;101754.47;;;-7.00;100.00
60099;BME280;62818;49.394;8.686;2022-12-18T02:35:31;101747.75;;;-7.06;100.00
60099;BME280;62818;49.394;8.686;2022-12-18T02:36:38;101744.19;;;-7.43;100.00
60099;BME280;62818;49.394;8.686;2022-12-18T02:37:45;101739.81;;;-7.39;100.00
60099;BME280;62818;49.394;8.686;2022-12-18T02:38:47;101735.91;;;-7.16;100.00
60099;BME280;62818;49.394;8.686;2022-12-18T02:39:52;101734.97;;;-7.55;100.00
60099;BME280;62818;49.394;8.686;2022-12-18T02:40:56;101732.81;;;-7.31;100.00
60099;BME280;62818;49.394;8.686;2022-12-18T02:41:58;101719.03;;;-7.30;100.00
60099;BME280;62818;49.394;8.686;2022-12-18T02:43:15;101728.53;;;-7.32;100.00
60099;BME280;62818;49.394;8.686;2022-12-18T02:44:16;101727.75;;;-7.37;100.00
60099;BME280;62818;49.394;8.686;2022-12-18T02:45:19;101718.84;;;-6.80;100.00
60099;BME280;62818;49.394;8.686;2022-12-18T02:46:32;101724.25;;;-7.33;100.00
60099;BME280;62818;49.394;8.686;2022-12-18T02:47:39;101729.69;;;-7.48;100.00
60099;BME280;62818;49.394;8.686;2022-12-18T02:48:48;101724.06;;;-7.24;100.00
60099;BME280;62818;49.394;8.686;2022-12-18T02:50:21;101725.97;;;-7.32;100.00
60099;BME280;62818;49.394;8.686;2022-12-18T02:51:40;101721.94;;;-7.45;100.00
60099;BME280;62818;49.394;8.686;2022-12-18T02:54:35;101708.91;;;-6.98;100.00
60099;BME280;62818;49.394;8.686;2022-12-18T02:55:48;101712.44;;;-7.01;100.00
60099;BME280;62818;49.394;8.686;2022-12-18T02:57:05;101704.38;;;-6.87;100.00
60099;BME280;62818;49.394;8.686;2022-12-18T02:58:26;101696.41;;;-6.40;100.00
60099;BME280;62818;49.394;8.686;2022-12-18T02:59:38;101706.28;;;-6.95;100.00
60099;BME280;62818;49.394;8.686;2022-12-18T03:02:04;101703.03;;;-7.03;100.00
60099;BME280;62818;49.394;8.686;2022-12-18T03:03:38;101696.94;;;-6.99;100.00
60099;BME280;62818;49.394;8.686;2022-12-18T03:05:12;101693.59;;;-7.03;100.00
60099;BME280;62818;49.394;8.686;2022-12-18T03:06:24;101687.09;;;-7.20;100.00
60099;BME280;62818;49.394;8.686;2022-12-18T03:08:56;101694.66;;;-6.74;100.00
60099;BME280;62818;49.394;8.686;2022-12-18T03:10:00;101688.03;;;-6.14;100.00
60099;BME280;62818;49.394;8.686;2022-12-18T03:11:11;101702.59;;;-6.12;100.00
60099;BME280;62818;49.394;8.686;2022-12-18T03:12:31;101709.94;;;-6.30;100.00
60099;BME280;62818;49.394;8.686;2022-12-18T03:13:46;101717.09;;;-7.19;100.00
60099;BME280;62818;49.394;8.686;2022-12-18T03:15:13;101724.19;;;-6.89;100.00
60099;BME280;62818;49.394;8.686;2022-12-18T03:16:25;101724.03;;;-6.45;100.00
60099;BME280;62818;49.394;8.686;2022-12-18T03:17:33;101718.59;;;-6.69;100.00
60099;BME280;62818;49.394;8.686;2022-12-18T03:19:03;101723.66;;;-6.28;100.00
60099;BME280;62818;49.394;8.686;2022-12-18T03:20:11;101722.41;;;-6.49;100.00
60099;BME280;62818;49.394;8.686;2022-12-18T03:21:17;101728.19;;;-6.76;100.00
60099;BME280;62818;49.394;8.686;2022-12-18T03:22:27;101732.91;;;-6.21;100.00
60099;BME280;62818;49.394;8.686;2022-12-18T03:23:35;101719.03;;;-5.83;100.00
60099;BME280;62818;49.394;8.686;2022-12-18T03:24:40;101741.00;;;-6.35;100.00
60099;BME280;62818;49.394;8.686;2022-12-18T03:25:47;101740.97;;;-6.71;100.00
60099;BME280;62818;49.394;8.686;2022-12-18T03:26:56;101744.47;;;-6.36;100.00
60099;BME280;62818;49.394;8.686;2022-12-18T03:28:02;101741.88;;;-7.12;100.00
60099;BME280;62818;49.394;8.686;2022-12-18T03:29:27;101747.78;;;-6.67;100.00
60099;BME280;62818;49.394;8.686;2022-12-18T03:30:38;101725.16;;;-6.20;100.00
60099;BME280;62818;49.394;8.686;2022-12-18T03:31:42;101724.75;;;-6.75;100.00
60099;BME280;62818;49.394;8.686;2022-12-18T03:33:17;101721.31;;;-7.14;100.00
60099;BME280;62818;49.394;8.686;2022-12-18T03:34:30;101713.44;;;-6.69;100.00
60099;BME280;62818;49.394;8.686;2022-12-18T03:35:36;101703.19;;;-6.36;100.00
60099;BME280;62818;49.394;8.686;2022-12-18T03:36:42;101699.44;;;-6.23;100.00
60099;BME280;62818;49.394;8.686;2022-12-18T03:37:43;101693.66;;;-6.69;100.00
60099;BME280;62818;49.394;8.686;2022-12-18T03:38:43;101692.63;;;-7.00;100.00
60099;BME280;62818;49.394;8.686;2022-12-18T03:39:44;101685.25;;;-6.77;100.00
60099;BME280;62818;49.394;8.686;2022-12-18T03:41:06;101682.59;;;-6.72;100.00
60099;BME280;62818;49.394;8.686;2022-12-18T03:48:04;101723.84;;;-7.12;100.00
60099;BME280;62818;49.394;8.686;2022-12-18T03:49:23;101722.16;;;-7.15;100.00
60099;BME280;62818;49.394;8.686;2022-12-18T03:50:57;101715.44;;;-7.20;100.00
60099;BME280;62818;49.394;8.686;2022-12-18T03:54:26;101716.47;;;-7.30;100.00
60099;BME280;62818;49.394;8.686;2022-12-18T03:55:35;101718.88;;;-6.43;100.00
60099;BME280;62818;49.394;8.686;2022-12-18T03:56:40;101708.34;;;-6.36;100.00
60099;BME280;62818;49.394;8.686;2022-12-18T03:57:44;101722.22;;;-7.16;100.00
60099;BME280;62818;49.394;8.686;2022-12-18T03:58:48;101720.72;;;-7.28;100.00
60099;BME280;62818;49.394;8.686;2022-12-18T03:59:55;101728.19;;;-6.76;100.00
60099;BME280;62818;49.394;8.686;2022-12-18T04:01:05;101725.88;;;-6.13;100.00
60099;BME280;62818;49.394;8.686;2022-12-18T04:02:10;101731.09;;;-6.91;100.00
60099;BME280;62818;49.394;8.686;2022-12-18T04:03:12;101731.28;;;-7.41;100.00
60099;BME280;62818;49.394;8.686;2022-12-18T04:04:19;101724.31;;;-6.95;100.00
60099;BME280;62818;49.394;8.686;2022-12-18T04:05:22;101721.56;;;-7.27;100.00
60099;BME280;62818;49.394;8.686;2022-12-18T04:06:26;101725.78;;;-7.23;100.00
60099;BME280;62818;49.394;8.686;2022-12-18T04:07:29;101725.41;;;-6.67;100.00
60099;BME280;62818;49.394;8.686;2022-12-18T04:08:31;101722.06;;;-6.34;100.00
60099;BME280;62818;49.394;8.686;2022-12-18T04:09:33;101723.75;;;-7.09;100.00
60099;BME280;62818;49.394;8.686;2022-12-18T04:10:36;101717.63;;;-6.64;100.00
60099;BME280;62818;49.394;8.686;2022-12-18T04:11:37;101713.81;;;-6.13;100.00
60099;BME280;62818;49.394;8.686;2022-12-18T04:12:40;101713.97;;;-6.94;100.00
60099;BME280;62818;49.394;8.686;2022-12-18T04:13:42;101720.38;;;-6.35;100.00
60099;BME280;62818;49.394;8.686;2022-12-18T04:14:43;101718.97;;;-6.48;100.00
60099;BME280;62818;49.394;8.686;2022-12-18T04:15:46;101728.19;;;-6.76;100.00
60099;BME280;62818;49.394;8.686;2022-12-18T04:16:46;101730.31;;;-6.56;100.00
60099;BME280;62818;49.394;8.686;2022-12-18T04:17:48;101732.59;;;-6.08;100.00
60099;BME280;62818;49.394;8.686;2022-12-18T04:18:50;101725.06;;;-6.17;100.00
60099;BME280;62818;49.394;8.686;2022-12-18T04:19:50;101738.03;;;-6.55;100.00
60099;BME280;62818;49.394;8.686;2022-12-18T04:20:51;101730.19;;;-6.50;100.00
60099;BME280;62818;49.394;8.686;2022-12-18T04:21:51;101722.69;;;-6.24;100.00
60099;BME280;62818;49.394;8.686;2022-12-18T04:22:52;101712.28;;;-5.87;100.00
60099;BME280;62818;49.394;8.686;2022-12-18T04:23:52;101724.88;;;-6.81;100.00
60099;BME280;62818;49.394;8.686;2022-12-18T04:24:55;101713.75;;;-6.83;100.00
60099;BME280;62818;49.394;8.686;2022-12-18T04:25:55;101710.91;;;-6.71;100.00
60099;BME280;62818;49.394;8.686;2022-12-18T04:26:56;101710.34;;;-6.84;100.00
60099;BME280;62818;49.394;8.686;2022-12-18T04:27:58;101715.91;;;-7.03;100.00
60099;BME280;62818;49.394;8.686;2022-12-18T04:28:59;101715.78;;;-6.97;100.00
60099;BME280;62818;49.394;8.686;2022-12-18T04:30:00;101710.81;;;-7.06;100.00
60099;BME280;62818;49.394;8.686;2022-12-18T04:31:01;101707.50;;;-6.36;100.00
60099;BME280;62818;49.394;8.686;2022-12-18T04:32:01;101705.75;;;-6.71;100.00
60099;BME280;62818;49.394;8.686;2022-12-18T04:33:02;101700.44;;;-6.63;100.00
60099;BME280;62818;49.394;8.686;2022-12-18T04:34:08;101689.41;;;-6.01;100.00
60099;BME280;62818;49.394;8.686;2022-12-18T04:35:11;101697.06;;;-6.67;100.00
60099;BME280;62818;49.394;8.686;2022-12-18T04:36:16;101692.78;;;-7.06;100.00
60099;BME280;62818;49.394;8.686;2022-12-18T04:37:16;101684.88;;;-6.25;100.00
60099;BME280;62818;49.394;8.686;2022-12-18T04:38:19;101687.00;;;-6.78;100.00
60099;BME280;62818;49.394;8.686;2022-12-18T04:39:20;101688.59;;;-6.01;100.00
60099;BME280;62818;49.394;8.686;2022-12-18T04:40:20;101689.41;;;-5.99;100.00
60099;BME280;62818;49.394;8.686;2022-12-18T04:41:21;101690.56;;;-6.46;100.00
60099;BME280;62818;49.394;8.686;2022-12-18T04:42:22;101689.41;;;-6.70;100.00
60099;BME280;62818;49.394;8.686;2022-12-18T04:43:22;101695.03;;;-6.91;100.00
60099;BME280;62818;49.394;8.686;2022-12-18T04:44:23;101693.44;;;-6.98;100.00
60099;BME280;62818;49.394;8.686;2022-12-18T04:45:23;101698.44;;;-6.17;100.00
60099;BME280;62818;49.394;8.686;2022-12-18T04:46:23;101698.41;;;-6.51;100.00
60099;BME280;62818;49.394;8.686;2022-12-18T04:47:26;101699.38;;;-6.93;100.00
60099;BME280;62818;49.394;8.686;2022-12-18T04:48:29;101693.97;;;-7.21;100.00
60099;BME280;62818;49.394;8.686;2022-12-18T04:49:29;101700.34;;;-7.38;100.00
60099;BME280;62818;49.394;8.686;2022-12-18T04:50:30;101700.03;;;-7.23;100.00
60099;BME280;62818;49.394;8.686;2022-12-18T04:51:32;101703.41;;;-7.21;100.00
60099;BME280;62818;49.394;8.686;2022-12-18T04:52:33;101701.16;;;-7.36;100.00
60099;BME280;62818;49.394;8.686;2022-12-18T04:53:33;101704.59;;;-7.37;100.00
60099;BME280;62818;49.394;8.686;2022-12-18T04:54:34;101692.69;;;-6.63;100.00
60099;BME280;62818;49.394;8.686;2022-12-18T04:55:35;101710.72;;;-7.02;100.00
60099;BME280;62818;49.394;8.686;2022-12-18T04:56:37;101702.69;;;-7.28;100.00
60099;BME280;62818;49.394;8.686;2022-12-18T04:57:41;101710.13;;;-7.14;100.00
60099;BME280;62818;49.394;8.686;2022-12-18T04:58:45;101696.50;;;-7.19;100.00
60099;BME280;62818;49.394;8.686;2022-12-18T04:59:45;101696.75;;;-7.31;100.00
60099;BME280;62818;49.394;8.686;2022-12-18T05:00:46;101703.63;;;-7.32;100.00
60099;BME280;62818;49.394;8.686;2022-12-18T05:01:47;101714.88;;;-7.36;100.00
60099;BME280;62818;49.394;8.686;2022-12-18T05:02:50;101711.13;;;-7.21;100.00
60099;BME280;62818;49.394;8.686;2022-12-18T05:03:53;101716.28;;;-7.21;100.00
60099;BME280;62818;49.394;8.686;2022-12-18T05:04:53;101717.88;;;-6.76;100.00
60099;BME280;62818;49.394;8.686;2022-12-18T05:05:59;101712.91;;;-7.23;100.00
60099;BME280;62818;49.394;8.686;2022-12-18T05:06:59;101714.78;;;-7.31;100.00
60099;BME280;62818;49.394;8.686;2022-12-18T05:08:00;101723.78;;;-7.11;100.00
60099;BME280;62818;49.394;8.686;2022-12-18T05:09:01;101712.09;;;-7.25;100.00
60099;BME280;62818;49.394;8.686;2022-12-18T05:10:01;101713.53;;;-7.55;100.00
60099;BME280;62818;49.394;8.686;2022-12-18T05:11:06;101729.59;;;-7.42;100.00
60099;BME280;62818;49.394;8.686;2022-12-18T05:12:08;101717.56;;;-6.61;100.00
60099;BME280;62818;49.394;8.686;2022-12-18T05:13:09;101728.72;;;-7.00;100.00
60099;BME280;62818;49.394;8.686;2022-12-18T05:14:09;101742.09;;;-7.24;100.00
60099;BME280;62818;49.394;8.686;2022-12-18T05:15:10;101737.34;;;-6.61;100.00
60099;BME280;62818;49.394;8.686;2022-12-18T05:16:13;101738.44;;;-6.73;100.00
60099;BME280;62818;49.394;8.686;2022-12-18T05:17:16;101752.09;;;-7.08;100.00
60099;BME280;62818;49.394;8.686;2022-12-18T05:18:20;101742.50;;;-7.01;100.00
60099;BME280;62818;49.394;8.686;2022-12-18T05:19:20;101740.91;;;-7.08;100.00
60099;BME280;62818;49.394;8.686;2022-12-18T05:20:24;101734.00;;;-7.06;100.00
60099;BME280;62818;49.394;8.686;2022-12-18T05:21:25;101737.00;;;-6.86;100.00
60099;BME280;62818;49.394;8.686;2022-12-18T05:22:28;101739.34;;;-7.14;100.00
60099;BME280;62818;49.394;8.686;2022-12-18T05:23:29;101740.59;;;-6.93;100.00
60099;BME280;62818;49.394;8.686;2022-12-18T05:24:29;101737.84;;;-7.25;100.00
60099;BME280;62818;49.394;8.686;2022-12-18T05:25:30;101744.97;;;-7.39;100.00
60099;BME280;62818;49.394;8.686;2022-12-18T05:26:30;101735.56;;;-7.40;100.00
60099;BME280;62818;49.394;8.686;2022-12-18T05:27:31;101744.75;;;-7.27;100.00
60099;BME280;62818;49.394;8.686;2022-12-18T05:28:33;101739.91;;;-7.42;100.00
60099;BME280;62818;49.394;8.686;2022-12-18T05:29:35;101734.19;;;-7.60;100.00
60099;BME280;62818;49.394;8.686;2022-12-18T05:30:36;101736.03;;;-7.20;100.00
60099;BME280;62818;49.394;8.686;2022-12-18T05:31:36;101734.81;;;-7.04;100.00
60099;BME280;62818;49.394;8.686;2022-12-18T05:32:39;101738.69;;;-6.47;100.00
60099;BME280;62818;49.394;8.686;2022-12-18T05:33:43;101734.91;;;-7.07;100.00
60099;BME280;62818;49.394;8.686;2022-12-18T05:34:43;101739.47;;;-7.21;100.00
60099;BME280;62818;49.394;8.686;2022-12-18T05:35:44;101733.75;;;-6.54;100.00
60099;BME280;62818;49.394;8.686;2022-12-18T05:36:53;101742.09;;;-7.24;100.00
60099;BME280;62818;49.394;8.686;2022-12-18T05:37:53;101751.41;;;-7.17;100.00
60099;BME280;62818;49.394;8.686;2022-12-18T05:38:56;101750.72;;;-7.25;100.00
60099;BME280;62818;49.394;8.686;2022-12-18T05:40:00;101748.00;;;-7.19;100.00
60099;BME280;62818;49.394;8.686;2022-12-18T05:41:05;101747.28;;;-7.26;100.00
60099;BME280;62818;49.394;8.686;2022-12-18T05:42:06;101749.94;;;-7.30;100.00
60099;BME280;62818;49.394;8.686;2022-12-18T05:43:10;101738.06;;;-7.37;100.00
60099;BME280;62818;49.394;8.686;2022-12-18T05:44:11;101730.44;;;-7.42;100.00
60099;BME280;62818;49.394;8.686;2022-12-18T05:45:11;101722.34;;;-7.24;100.00
60099;BME280;62818;49.394;8.686;2022-12-18T05:46:17;101725.81;;;-7.26;100.00
60099;BME280;62818;49.394;8.686;2022-12-18T05:47:21;101717.88;;;-6.76;100.00
60099;BME280;62818;49.394;8.686;2022-12-18T05:48:21;101722.22;;;-7.16;100.00
60099;BME280;62818;49.394;8.686;2022-12-18T05:49:24;101716.78;;;-7.03;100.00
60099;BME280;62818;49.394;8.686;2022-12-18T05:50:27;101716.09;;;-7.12;100.00
60099;BME280;62818;49.394;8.686;2022-12-18T05:51:30;101707.03;;;-6.90;100.00
60099;BME280;62818;49.394;8.686;2022-12-18T05:52:33;101701.31;;;-7.04;100.00
60099;BME280;62818;49.394;8.686;2022-12-18T05:53:36;101710.41;;;-7.28;100.00
60099;BME280;62818;49.394;8.686;2022-12-18T05:54:37;101714.66;;;-7.27;100.00
60099;BME280;62818;49.394;8.686;2022-12-18T05:55:42;101708.72;;;-6.51;100.00